createdAt,value
2016-10-31T00:00:40.821Z,0
2016-10-31T00:01:41.144Z,0
2016-10-31T00:02:41.155Z,0
2016-10-31T00:03:41.552Z,0
2016-10-31T00:04:40.908Z,0
2016-10-31T00:05:41.217Z,0
2016-10-31T00:06:41.860Z,0
2016-10-31T00:07:41.260Z,0
2016-10-31T00:08:41.274Z,0
2016-10-31T00:09:41.654Z,0
2016-10-31T00:10:40.694Z,0
2016-10-31T00:11:41.027Z,0
2016-10-31T00:12:40.718Z,0
2016-10-31T00:13:40.757Z,0
2016-10-31T00:14:42.019Z,0
2016-10-31T00:15:41.419Z,0
2016-10-31T00:16:41.430Z,0
2016-10-31T00:17:41.453Z,0
2016-10-31T00:18:41.476Z,0
2016-10-31T00:19:41.161Z,0
2016-10-31T00:20:41.536Z,0
2016-10-31T00:21:41.418Z,0
2016-10-31T00:22:41.857Z,0
2016-10-31T00:23:40.927Z,0
2016-10-31T00:24:42.229Z,0
2016-10-31T00:25:41.626Z,0
2016-10-31T00:26:41.921Z,0
2016-10-31T00:27:40.995Z,0
2016-10-31T00:28:41.980Z,0
2016-10-31T00:29:41.386Z,0
2016-10-31T00:30:41.372Z,0
2016-10-31T00:31:42.060Z,0
2016-10-31T00:32:41.446Z,0
2016-10-31T00:33:41.742Z,0
2016-10-31T00:34:42.077Z,0
2016-10-31T00:35:41.816Z,0
2016-10-31T00:36:41.199Z,0
2016-10-31T00:37:41.517Z,0
2016-10-31T00:38:41.860Z,0
2016-10-31T00:39:41.235Z,0
2016-10-31T00:40:41.610Z,0
2016-10-31T00:41:41.919Z,0
2016-10-31T00:42:41.612Z,0
2016-10-31T00:43:41.633Z,0
2016-10-31T00:44:42.265Z,0
2016-10-31T00:45:41.972Z,0
2016-10-31T00:46:41.358Z,0
2016-10-31T00:47:42.007Z,0
2016-10-31T00:48:42.345Z,0
2016-10-31T00:49:41.750Z,0
2016-10-31T00:50:41.768Z,0
2016-10-31T00:51:41.786Z,0
2016-10-31T00:52:42.144Z,0
2016-10-31T00:53:41.811Z,0
2016-10-31T00:54:41.516Z,0
2016-10-31T00:55:42.470Z,0
2016-10-31T00:56:41.861Z,0
2016-10-31T00:57:42.200Z,0
2016-10-31T00:58:41.593Z,0
2016-10-31T00:59:42.237Z,0
2016-10-31T01:00:41.937Z,0
2016-10-31T01:01:42.285Z,0
2016-10-31T01:02:41.973Z,0
2016-10-31T01:03:42.642Z,0
2016-10-31T01:04:42.649Z,0
2016-10-31T01:05:42.347Z,0
2016-10-31T01:06:42.069Z,0
2016-10-31T01:07:42.069Z,0
2016-10-31T01:08:42.402Z,0
2016-10-31T01:09:42.739Z,0
2016-10-31T01:10:42.451Z,0
2016-10-31T01:11:42.471Z,0
2016-10-31T01:12:42.477Z,0
2016-10-31T01:13:42.510Z,0
2016-10-31T01:14:42.516Z,0
2016-10-31T01:15:42.542Z,0
2016-10-31T01:16:42.867Z,0
2016-10-31T01:17:42.571Z,0
2016-10-31T01:18:42.293Z,0
2016-10-31T01:19:42.613Z,0
2016-10-31T01:20:42.630Z,0
2016-10-31T01:21:42.679Z,0
2016-10-31T01:22:42.387Z,0
2016-10-31T01:23:42.687Z,0
2016-10-31T01:24:42.725Z,0
2016-10-31T01:25:42.415Z,0
2016-10-31T01:26:43.066Z,0
2016-10-31T01:27:42.770Z,0
2016-10-31T01:28:42.194Z,0
2016-10-31T01:29:42.798Z,0
2016-10-31T01:30:42.189Z,0
2016-10-31T01:31:42.520Z,0
2016-10-31T01:32:42.861Z,0
2016-10-31T01:33:43.212Z,0
2016-10-31T01:34:42.923Z,0
2016-10-31T01:35:43.235Z,0
2016-10-31T01:36:43.587Z,0
2016-10-31T01:37:43.266Z,0
2016-10-31T01:38:42.970Z,0
2016-10-31T01:39:42.670Z,0
2016-10-31T01:40:42.697Z,0
2016-10-31T01:41:43.033Z,0
2016-10-31T01:42:42.736Z,0
2016-10-31T01:43:43.113Z,0
2016-10-31T01:44:42.456Z,0
2016-10-31T01:45:43.136Z,0
2016-10-31T01:46:42.485Z,0
2016-10-31T01:47:42.825Z,0
2016-10-31T01:48:42.852Z,0
2016-10-31T01:49:43.815Z,0
2016-10-31T01:50:42.914Z,0
2016-10-31T01:51:43.238Z,0
2016-10-31T01:52:42.931Z,0
2016-10-31T01:53:42.619Z,0
2016-10-31T01:54:43.587Z,0
2016-10-31T01:55:43.610Z,0
2016-10-31T01:56:42.991Z,0
2016-10-31T01:57:43.327Z,0
2016-10-31T01:58:43.659Z,0
2016-10-31T01:59:43.053Z,0
2016-10-31T02:00:43.070Z,0
2016-10-31T02:01:43.720Z,0
2016-10-31T02:02:43.419Z,0
2016-10-31T02:03:43.120Z,0
2016-10-31T02:04:43.467Z,0
2016-10-31T02:05:44.104Z,0
2016-10-31T02:06:43.852Z,0
2016-10-31T02:07:43.830Z,0
2016-10-31T02:08:43.530Z,0
2016-10-31T02:09:43.234Z,0
2016-10-31T02:10:43.572Z,0
2016-10-31T02:11:43.905Z,0
2016-10-31T02:12:43.610Z,0
2016-10-31T02:13:43.671Z,0
2016-10-31T02:14:43.336Z,0
2016-10-31T02:15:43.690Z,0
2016-10-31T02:16:43.685Z,0
2016-10-31T02:17:43.703Z,0
2016-10-31T02:18:44.036Z,0
2016-10-31T02:19:44.058Z,0
2016-10-31T02:20:43.769Z,0
2016-10-31T02:21:44.416Z,0
2016-10-31T02:22:44.112Z,0
2016-10-31T02:23:43.818Z,0
2016-10-31T02:24:43.844Z,0
2016-10-31T02:25:43.887Z,0
2016-10-31T02:26:43.555Z,0
2016-10-31T02:27:44.210Z,0
2016-10-31T02:28:43.598Z,0
2016-10-31T02:29:43.929Z,0
2016-10-31T02:30:44.268Z,0
2016-10-31T02:31:43.971Z,0
2016-10-31T02:32:44.336Z,0
2016-10-31T02:33:43.699Z,0
2016-10-31T02:34:44.660Z,0
2016-10-31T02:35:43.737Z,0
2016-10-31T02:36:44.395Z,0
2016-10-31T02:37:44.405Z,0
2016-10-31T02:38:44.105Z,0
2016-10-31T02:39:44.139Z,0
2016-10-31T02:40:44.173Z,0
2016-10-31T02:41:44.159Z,0
2016-10-31T02:42:43.860Z,0
2016-10-31T02:43:44.218Z,0
2016-10-31T02:44:43.903Z,0
2016-10-31T02:45:43.920Z,0
2016-10-31T02:46:44.570Z,0
2016-10-31T02:47:43.959Z,0
2016-10-31T02:48:44.293Z,0
2016-10-31T02:49:44.625Z,0
2016-10-31T02:50:44.340Z,0
2016-10-31T02:51:44.039Z,0
2016-10-31T02:52:44.379Z,0
2016-10-31T02:53:43.761Z,0
2016-10-31T02:54:44.091Z,0
2016-10-31T02:55:44.435Z,0
2016-10-31T02:56:44.760Z,0
2016-10-31T02:57:44.463Z,0
2016-10-31T02:58:44.817Z,0
2016-10-31T02:59:45.125Z,0
2016-10-31T03:00:44.203Z,0
2016-10-31T03:01:44.854Z,0
2016-10-31T03:02:43.931Z,0
2016-10-31T03:03:44.896Z,0
2016-10-31T03:04:44.281Z,0
2016-10-31T03:05:44.940Z,0
2016-10-31T03:06:44.631Z,0
2016-10-31T03:07:44.662Z,0
2016-10-31T03:08:44.674Z,0
2016-10-31T03:09:44.695Z,0
2016-10-31T03:10:44.722Z,0
2016-10-31T03:11:44.423Z,0
2016-10-31T03:12:44.119Z,0
2016-10-31T03:13:44.452Z,0
2016-10-31T03:14:45.421Z,0
2016-10-31T03:15:44.841Z,0
2016-10-31T03:16:45.186Z,0
2016-10-31T03:17:44.215Z,0
2016-10-31T03:18:44.545Z,0
2016-10-31T03:19:44.926Z,0
2016-10-31T03:20:44.905Z,0
2016-10-31T03:21:44.649Z,0
2016-10-31T03:22:45.258Z,0
2016-10-31T03:23:44.959Z,0
2016-10-31T03:24:44.660Z,0
2016-10-31T03:25:44.681Z,0
2016-10-31T03:26:45.020Z,0
2016-10-31T03:27:45.385Z,0
2016-10-31T03:28:45.371Z,0
2016-10-31T03:29:45.745Z,0
2016-10-31T03:30:45.101Z,0
2016-10-31T03:31:45.114Z,0
2016-10-31T03:32:45.443Z,0
2016-10-31T03:33:45.471Z,0
2016-10-31T03:34:44.854Z,0
2016-10-31T03:35:45.189Z,0
2016-10-31T03:36:45.213Z,0
2016-10-31T03:37:45.231Z,0
2016-10-31T03:38:44.926Z,0
2016-10-31T03:39:44.642Z,0
2016-10-31T03:40:44.983Z,0
2016-10-31T03:41:44.674Z,0
2016-10-31T03:42:45.324Z,0
2016-10-31T03:43:45.661Z,0
2016-10-31T03:44:44.729Z,0
2016-10-31T03:45:44.748Z,0
2016-10-31T03:46:44.765Z,0
2016-10-31T03:47:45.415Z,0
2016-10-31T03:48:45.436Z,0
2016-10-31T03:49:45.453Z,0
2016-10-31T03:50:45.160Z,0
2016-10-31T03:51:45.805Z,0
2016-10-31T03:52:45.509Z,0
2016-10-31T03:53:46.159Z,0
2016-10-31T03:54:45.551Z,0
2016-10-31T03:55:45.571Z,0
2016-10-31T03:56:45.909Z,0
2016-10-31T03:57:45.604Z,0
2016-10-31T03:58:45.311Z,0
2016-10-31T03:59:45.025Z,0
2016-10-31T04:00:45.668Z,0
2016-10-31T04:01:45.997Z,0
2016-10-31T04:02:45.076Z,0
2016-10-31T04:03:45.403Z,0
2016-10-31T04:04:46.052Z,0
2016-10-31T04:05:45.443Z,0
2016-10-31T04:06:46.095Z,0
2016-10-31T04:07:45.803Z,0
2016-10-31T04:08:45.817Z,0
2016-10-31T04:09:45.520Z,0
2016-10-31T04:10:45.546Z,0
2016-10-31T04:11:45.557Z,0
2016-10-31T04:12:45.887Z,0
2016-10-31T04:13:45.594Z,0
2016-10-31T04:14:45.612Z,0
2016-10-31T04:15:45.951Z,0
2016-10-31T04:16:46.276Z,0
2016-10-31T04:17:45.672Z,0
2016-10-31T04:18:46.004Z,0
2016-10-31T04:19:46.021Z,0
2016-10-31T04:20:45.407Z,0
2016-10-31T04:21:46.073Z,0
2016-10-31T04:22:46.078Z,0
2016-10-31T04:23:46.419Z,0
2016-10-31T04:24:46.471Z,0
2016-10-31T04:25:46.472Z,0
2016-10-31T04:26:46.162Z,0
2016-10-31T04:27:46.171Z,0
2016-10-31T04:28:46.857Z,0
2016-10-31T04:29:46.212Z,0
2016-10-31T04:30:46.550Z,0
2016-10-31T04:31:46.573Z,0
2016-10-31T04:32:45.956Z,0
2016-10-31T04:33:45.973Z,0
2016-10-31T04:34:45.989Z,0
2016-10-31T04:35:46.326Z,0
2016-10-31T04:36:46.039Z,0
2016-10-31T04:37:46.683Z,0
2016-10-31T04:38:45.774Z,0
2016-10-31T04:39:46.084Z,0
2016-10-31T04:40:46.102Z,0
2016-10-31T04:41:46.125Z,0
2016-10-31T04:42:46.775Z,0
2016-10-31T04:43:45.845Z,0
2016-10-31T04:44:46.493Z,0
2016-10-31T04:45:47.143Z,0
2016-10-31T04:46:46.536Z,0
2016-10-31T04:47:46.265Z,0
2016-10-31T04:48:46.258Z,0
2016-10-31T04:49:45.991Z,0
2016-10-31T04:50:46.293Z,0
2016-10-31T04:51:47.259Z,0
2016-10-31T04:52:46.674Z,0
2016-10-31T04:53:46.347Z,0
2016-10-31T04:54:46.367Z,0
2016-10-31T04:55:46.701Z,0
2016-10-31T04:56:47.034Z,0
2016-10-31T04:57:46.423Z,0
2016-10-31T04:58:46.129Z,0
2016-10-31T04:59:47.093Z,0
2016-10-31T05:00:46.484Z,0
2016-10-31T05:01:46.498Z,0
2016-10-31T05:02:47.461Z,0
2016-10-31T05:03:46.544Z,0
2016-10-31T05:04:46.868Z,0
2016-10-31T05:05:46.614Z,0
2016-10-31T05:06:46.275Z,0
2016-10-31T05:07:46.295Z,0
2016-10-31T05:08:46.943Z,0
2016-10-31T05:09:46.650Z,0
2016-10-31T05:10:46.977Z,0
2016-10-31T05:11:46.689Z,0
2016-10-31T05:12:47.024Z,0
2016-10-31T05:13:47.352Z,0
2016-10-31T05:14:46.426Z,0
2016-10-31T05:15:47.428Z,0
2016-10-31T05:16:46.794Z,0
2016-10-31T05:17:47.443Z,0
2016-10-31T05:18:46.813Z,0
2016-10-31T05:19:47.150Z,0
2016-10-31T05:20:47.485Z,0
2016-10-31T05:21:47.503Z,0
2016-10-31T05:22:47.204Z,0
2016-10-31T05:23:46.909Z,0
2016-10-31T05:24:46.927Z,0
2016-10-31T05:25:47.575Z,0
2016-10-31T05:26:47.603Z,0
2016-10-31T05:27:46.982Z,0
2016-10-31T05:28:47.637Z,0
2016-10-31T05:29:47.017Z,0
2016-10-31T05:30:47.665Z,0
2016-10-31T05:31:47.058Z,0
2016-10-31T05:32:47.390Z,0
2016-10-31T05:33:47.410Z,0
2016-10-31T05:34:47.425Z,0
2016-10-31T05:35:47.177Z,0
2016-10-31T05:36:47.165Z,0
2016-10-31T05:37:47.521Z,0
2016-10-31T05:38:47.506Z,0
2016-10-31T05:39:47.527Z,0
2016-10-31T05:40:47.855Z,0
2016-10-31T05:41:48.184Z,0
2016-10-31T05:42:47.575Z,0
2016-10-31T05:43:47.640Z,0
2016-10-31T05:44:48.246Z,0
2016-10-31T05:45:47.319Z,0
2016-10-31T05:46:47.332Z,0
2016-10-31T05:47:48.005Z,0
2016-10-31T05:48:48.004Z,0
2016-10-31T05:49:47.742Z,0
2016-10-31T05:50:47.413Z,0
2016-10-31T05:51:48.064Z,0
2016-10-31T05:52:48.094Z,0
2016-10-31T05:53:48.110Z,0
2016-10-31T05:54:48.118Z,0
2016-10-31T05:55:48.126Z,0
2016-10-31T05:56:47.886Z,0
2016-10-31T05:57:47.540Z,0
2016-10-31T05:58:47.556Z,0
2016-10-31T05:59:47.257Z,0
2016-10-31T06:00:47.593Z,0
2016-10-31T06:01:47.927Z,0
2016-10-31T06:02:47.990Z,0
2016-10-31T06:03:47.964Z,0
2016-10-31T06:04:48.330Z,0
2016-10-31T06:05:47.687Z,0
2016-10-31T06:06:47.702Z,0
2016-10-31T06:07:47.410Z,0
2016-10-31T06:08:47.735Z,0
2016-10-31T06:09:48.103Z,0
2016-10-31T06:10:47.773Z,0
2016-10-31T06:11:48.113Z,0
2016-10-31T06:12:48.129Z,0
2016-10-31T06:13:48.460Z,0
2016-10-31T06:14:47.845Z,0
2016-10-31T06:15:48.175Z,0
2016-10-31T06:16:48.249Z,0
2016-10-31T06:17:48.211Z,0
2016-10-31T06:18:48.543Z,0
2016-10-31T06:19:48.887Z,0
2016-10-31T06:20:48.269Z,0
2016-10-31T06:21:48.624Z,0
2016-10-31T06:22:48.931Z,0
2016-10-31T06:23:48.650Z,0
2016-10-31T06:24:48.667Z,0
2016-10-31T06:25:48.356Z,0
2016-10-31T06:26:48.471Z,0
2016-10-31T06:27:48.087Z,0
2016-10-31T06:28:48.425Z,0
2016-10-31T06:29:48.468Z,0
2016-10-31T06:30:47.811Z,0
2016-10-31T06:31:48.788Z,0
2016-10-31T06:32:48.480Z,0
2016-10-31T06:33:48.520Z,0
2016-10-31T06:34:48.202Z,0
2016-10-31T06:35:49.159Z,0
2016-10-31T06:36:48.570Z,0
2016-10-31T06:37:48.288Z,0
2016-10-31T06:38:48.592Z,0
2016-10-31T06:39:48.603Z,5
2016-10-31T06:40:48.003Z,5
2016-10-31T06:41:48.957Z,5
2016-10-31T06:42:48.658Z,5
2016-10-31T06:43:48.679Z,5
2016-10-31T06:44:48.392Z,5
2016-10-31T06:45:48.395Z,5
2016-10-31T06:46:49.051Z,5
2016-10-31T06:47:48.432Z,5
2016-10-31T06:48:49.079Z,5
2016-10-31T06:49:49.141Z,5
2016-10-31T06:50:48.476Z,5
2016-10-31T06:51:48.810Z,5
2016-10-31T06:52:48.887Z,5
2016-10-31T06:53:49.175Z,5
2016-10-31T06:54:48.872Z,5
2016-10-31T06:55:48.572Z,5
2016-10-31T06:56:48.897Z,5
2016-10-31T06:57:48.613Z,5
2016-10-31T06:58:49.248Z,5
2016-10-31T06:59:48.957Z,5
2016-10-31T07:00:49.289Z,5
2016-10-31T07:01:48.990Z,5
2016-10-31T07:02:49.320Z,5
2016-10-31T07:03:49.026Z,5
2016-10-31T07:04:48.730Z,5
2016-10-31T07:05:48.747Z,5
2016-10-31T07:06:49.745Z,5
2016-10-31T07:07:48.469Z,5
2016-10-31T07:08:49.426Z,5
2016-10-31T07:09:48.812Z,5
2016-10-31T07:10:49.461Z,10
2016-10-31T07:11:48.850Z,10
2016-10-31T07:12:48.552Z,10
2016-10-31T07:13:49.530Z,10
2016-10-31T07:14:48.907Z,10
2016-10-31T07:15:49.236Z,10
2016-10-31T07:16:49.895Z,10
2016-10-31T07:17:49.585Z,10
2016-10-31T07:18:49.292Z,15
2016-10-31T07:19:49.311Z,15
2016-10-31T07:20:49.029Z,15
2016-10-31T07:21:49.347Z,15
2016-10-31T07:22:49.677Z,20
2016-10-31T07:23:49.699Z,20
2016-10-31T07:24:49.399Z,25
2016-10-31T07:25:49.113Z,30
2016-10-31T07:26:48.812Z,35
2016-10-31T07:27:49.451Z,100
2016-10-31T07:28:49.167Z,145
2016-10-31T07:29:49.798Z,115
2016-10-31T07:30:49.188Z,135
2016-10-31T07:31:49.225Z,145
2016-10-31T07:32:49.235Z,140
2016-10-31T07:33:49.879Z,160
2016-10-31T07:34:49.273Z,135
2016-10-31T07:35:49.611Z,140
2016-10-31T07:36:49.934Z,160
2016-10-31T07:37:49.948Z,140
2016-10-31T07:38:49.652Z,140
2016-10-31T07:39:49.047Z,220
2016-10-31T07:40:50.026Z,405
2016-10-31T07:41:49.080Z,555
2016-10-31T07:42:50.048Z,510
2016-10-31T07:43:49.766Z,275
2016-10-31T07:44:50.095Z,145
2016-10-31T07:45:49.796Z,150
2016-10-31T07:46:49.826Z,325
2016-10-31T07:47:49.844Z,675
2016-10-31T07:48:49.871Z,1000
2016-10-31T07:49:50.201Z,1110
2016-10-31T07:50:49.910Z,1240
2016-10-31T07:51:49.938Z,1210
2016-10-31T07:52:49.640Z,875
2016-10-31T07:53:49.980Z,465
2016-10-31T07:54:49.412Z,610
2016-10-31T07:55:50.654Z,330
2016-10-31T07:56:49.420Z,125
2016-10-31T07:57:50.399Z,345
2016-10-31T07:58:50.448Z,660
2016-10-31T07:59:50.126Z,670
2016-10-31T08:00:49.943Z,275
2016-10-31T08:01:49.857Z,215
2016-10-31T08:02:49.882Z,310
2016-10-31T08:03:50.534Z,285
2016-10-31T08:04:50.251Z,180
2016-10-31T08:05:49.957Z,130
2016-10-31T08:06:50.611Z,170
2016-10-31T08:07:50.820Z,150
2016-10-31T08:08:50.975Z,125
2016-10-31T08:09:50.694Z,155
2016-10-31T08:10:50.394Z,115
2016-10-31T08:11:50.429Z,165
2016-10-31T08:12:50.129Z,510
2016-10-31T08:13:50.160Z,815
2016-10-31T08:14:49.870Z,445
2016-10-31T08:15:50.529Z,220
2016-10-31T08:16:50.246Z,305
2016-10-31T08:17:50.264Z,650
2016-10-31T08:18:49.965Z,665
2016-10-31T08:19:50.298Z,500
2016-10-31T08:20:50.952Z,590
2016-10-31T08:21:50.980Z,675
2016-10-31T08:22:50.394Z,460
2016-10-31T08:23:50.728Z,215
2016-10-31T08:24:50.732Z,105
2016-10-31T08:25:50.760Z,90
2016-10-31T08:26:50.789Z,90
2016-10-31T08:27:50.492Z,85
2016-10-31T08:28:50.832Z,85
2016-10-31T08:29:50.543Z,80
2016-10-31T08:30:50.886Z,80
2016-10-31T08:31:51.119Z,90
2016-10-31T08:32:50.624Z,80
2016-10-31T08:33:50.664Z,85
2016-10-31T08:34:50.668Z,90
2016-10-31T08:35:51.635Z,105
2016-10-31T08:36:51.067Z,175
2016-10-31T08:37:51.376Z,355
2016-10-31T08:38:51.712Z,435
2016-10-31T08:39:51.161Z,390
2016-10-31T08:40:51.447Z,245
2016-10-31T08:41:50.540Z,320
2016-10-31T08:42:50.924Z,540
2016-10-31T08:43:50.576Z,540
2016-10-31T08:44:51.553Z,670
2016-10-31T08:45:51.258Z,620
2016-10-31T08:46:51.300Z,375
2016-10-31T08:47:51.354Z,180
2016-10-31T08:48:51.333Z,50
2016-10-31T08:49:51.365Z,45
2016-10-31T08:50:51.695Z,50
2016-10-31T08:51:51.119Z,185
2016-10-31T08:52:50.803Z,85
2016-10-31T08:53:51.476Z,455
2016-10-31T08:54:51.207Z,240
2016-10-31T08:55:51.510Z,155
2016-10-31T08:56:51.843Z,170
2016-10-31T08:57:51.545Z,160
2016-10-31T08:58:51.904Z,150
2016-10-31T08:59:51.596Z,75
2016-10-31T09:00:51.626Z,90
2016-10-31T09:01:51.653Z,80
2016-10-31T09:02:51.051Z,75
2016-10-31T09:03:51.708Z,80
2016-10-31T09:04:51.725Z,80
2016-10-31T09:05:51.802Z,80
2016-10-31T09:06:52.115Z,65
2016-10-31T09:07:52.440Z,75
2016-10-31T09:08:51.225Z,80
2016-10-31T09:09:51.217Z,80
2016-10-31T09:10:51.291Z,90
2016-10-31T09:11:51.897Z,80
2016-10-31T09:12:52.256Z,80
2016-10-31T09:13:51.661Z,85
2016-10-31T09:14:52.279Z,80
2016-10-31T09:15:51.674Z,85
2016-10-31T09:16:52.009Z,110
2016-10-31T09:17:52.665Z,160
2016-10-31T09:18:51.766Z,195
2016-10-31T09:19:51.768Z,190
2016-10-31T09:20:51.476Z,220
2016-10-31T09:21:52.155Z,285
2016-10-31T09:22:52.155Z,270
2016-10-31T09:23:52.491Z,180
2016-10-31T09:24:52.522Z,105
2016-10-31T09:25:52.856Z,120
2016-10-31T09:26:51.639Z,85
2016-10-31T09:27:51.953Z,80
2016-10-31T09:28:52.296Z,75
2016-10-31T09:29:52.362Z,120
2016-10-31T09:30:52.801Z,285
2016-10-31T09:31:52.691Z,280
2016-10-31T09:32:52.090Z,135
2016-10-31T09:33:52.736Z,80
2016-10-31T09:34:52.128Z,80
2016-10-31T09:35:52.782Z,80
2016-10-31T09:36:52.831Z,80
2016-10-31T09:37:52.828Z,90
2016-10-31T09:38:52.534Z,85
2016-10-31T09:39:52.619Z,85
2016-10-31T09:40:51.956Z,85
2016-10-31T09:41:53.243Z,90
2016-10-31T09:42:52.635Z,145
2016-10-31T09:43:52.653Z,35
2016-10-31T09:44:52.678Z,50
2016-10-31T09:45:52.721Z,90
2016-10-31T09:46:52.772Z,90
2016-10-31T09:47:52.442Z,110
2016-10-31T09:48:52.150Z,120
2016-10-31T09:49:53.108Z,135
2016-10-31T09:50:53.145Z,80
2016-10-31T09:51:52.580Z,60
2016-10-31T09:52:53.501Z,100
2016-10-31T09:53:52.579Z,60
2016-10-31T09:54:52.621Z,75
2016-10-31T09:55:52.625Z,75
2016-10-31T09:56:52.659Z,100
2016-10-31T09:57:52.697Z,85
2016-10-31T09:58:52.380Z,75
2016-10-31T09:59:52.416Z,70
2016-10-31T10:00:53.066Z,70
2016-10-31T10:01:53.413Z,75
2016-10-31T10:02:52.795Z,80
2016-10-31T10:03:53.137Z,85
2016-10-31T10:04:53.166Z,80
2016-10-31T10:05:52.869Z,90
2016-10-31T10:06:52.893Z,80
2016-10-31T10:07:52.934Z,80
2016-10-31T10:08:53.280Z,80
2016-10-31T10:09:53.286Z,75
2016-10-31T10:10:52.999Z,70
2016-10-31T10:11:53.363Z,70
2016-10-31T10:12:53.353Z,80
2016-10-31T10:13:53.081Z,90
2016-10-31T10:14:52.770Z,85
2016-10-31T10:15:53.760Z,80
2016-10-31T10:16:53.449Z,70
2016-10-31T10:17:53.164Z,65
2016-10-31T10:18:54.158Z,65
2016-10-31T10:19:53.211Z,65
2016-10-31T10:20:53.299Z,65
2016-10-31T10:21:53.575Z,65
2016-10-31T10:22:53.969Z,65
2016-10-31T10:23:53.934Z,65
2016-10-31T10:24:53.008Z,70
2016-10-31T10:25:53.684Z,90
2016-10-31T10:26:53.697Z,90
2016-10-31T10:27:53.721Z,80
2016-10-31T10:28:54.371Z,80
2016-10-31T10:29:53.449Z,75
2016-10-31T10:30:54.104Z,75
2016-10-31T10:31:53.808Z,75
2016-10-31T10:32:53.518Z,80
2016-10-31T10:33:53.552Z,80
2016-10-31T10:34:54.196Z,80
2016-10-31T10:35:53.645Z,70
2016-10-31T10:36:53.931Z,65
2016-10-31T10:37:53.966Z,65
2016-10-31T10:38:53.979Z,70
2016-10-31T10:39:54.359Z,70
2016-10-31T10:40:54.037Z,70
2016-10-31T10:41:54.717Z,70
2016-10-31T10:42:54.077Z,75
2016-10-31T10:43:53.795Z,85
2016-10-31T10:44:53.819Z,90
2016-10-31T10:45:53.833Z,85
2016-10-31T10:46:53.550Z,80
2016-10-31T10:47:54.218Z,75
2016-10-31T10:48:54.552Z,65
2016-10-31T10:49:53.952Z,70
2016-10-31T10:50:54.276Z,75
2016-10-31T10:51:53.980Z,75
2016-10-31T10:52:54.012Z,60
2016-10-31T10:53:54.038Z,55
2016-10-31T10:54:55.010Z,55
2016-10-31T10:55:54.789Z,55
2016-10-31T10:56:54.132Z,55
2016-10-31T10:57:54.777Z,55
2016-10-31T10:58:53.860Z,55
2016-10-31T10:59:54.183Z,55
2016-10-31T11:00:55.159Z,55
2016-10-31T11:01:54.859Z,55
2016-10-31T11:02:54.254Z,55
2016-10-31T11:03:54.599Z,55
2016-10-31T11:04:54.936Z,55
2016-10-31T11:05:54.692Z,55
2016-10-31T11:06:54.360Z,55
2016-10-31T11:07:54.082Z,55
2016-10-31T11:08:55.352Z,55
2016-10-31T11:09:54.746Z,55
2016-10-31T11:10:54.460Z,55
2016-10-31T11:11:55.121Z,55
2016-10-31T11:12:54.819Z,55
2016-10-31T11:13:54.855Z,55
2016-10-31T11:14:54.879Z,55
2016-10-31T11:15:54.892Z,55
2016-10-31T11:16:54.927Z,50
2016-10-31T11:17:54.643Z,55
2016-10-31T11:18:54.980Z,55
2016-10-31T11:19:54.708Z,55
2016-10-31T11:20:55.026Z,50
2016-10-31T11:21:55.054Z,55
2016-10-31T11:22:55.092Z,50
2016-10-31T11:23:55.413Z,55
2016-10-31T11:24:54.804Z,50
2016-10-31T11:25:55.462Z,50
2016-10-31T11:26:55.170Z,50
2016-10-31T11:27:54.579Z,50
2016-10-31T11:28:55.540Z,50
2016-10-31T11:29:55.265Z,50
2016-10-31T11:30:54.955Z,50
2016-10-31T11:31:55.938Z,50
2016-10-31T11:32:55.643Z,50
2016-10-31T11:33:55.050Z,50
2016-10-31T11:34:55.428Z,50
2016-10-31T11:35:55.729Z,50
2016-10-31T11:36:55.732Z,50
2016-10-31T11:37:56.048Z,50
2016-10-31T11:39:10.170Z,50
2016-10-31T11:39:56.166Z,50
2016-10-31T11:40:55.844Z,45
2016-10-31T11:41:55.547Z,45
2016-10-31T11:42:55.882Z,50
2016-10-31T11:43:55.291Z,45
2016-10-31T11:44:55.673Z,45
2016-10-31T11:45:55.712Z,45
2016-10-31T11:46:55.687Z,45
2016-10-31T11:47:55.384Z,45
2016-10-31T11:48:55.731Z,45
2016-10-31T11:49:55.745Z,45
2016-10-31T11:50:55.802Z,45
2016-10-31T11:51:55.797Z,45
2016-10-31T11:52:55.516Z,45
2016-10-31T11:53:55.896Z,45
2016-10-31T11:54:55.554Z,45
2016-10-31T11:55:55.603Z,45
2016-10-31T11:56:55.616Z,45
2016-10-31T11:57:55.325Z,45
2016-10-31T11:58:55.972Z,40
2016-10-31T11:59:55.356Z,40
2016-10-31T12:00:55.694Z,40
2016-10-31T12:01:55.740Z,40
2016-10-31T12:02:56.079Z,40
2016-10-31T12:03:56.444Z,40
2016-10-31T12:04:55.804Z,40
2016-10-31T12:05:56.139Z,40
2016-10-31T12:06:55.862Z,40
2016-10-31T12:07:55.876Z,40
2016-10-31T12:08:56.216Z,40
2016-10-31T12:09:56.554Z,40
2016-10-31T12:10:55.670Z,40
2016-10-31T12:11:56.295Z,40
2016-10-31T12:12:56.312Z,40
2016-10-31T12:13:56.013Z,40
2016-10-31T12:14:56.066Z,40
2016-10-31T12:15:56.383Z,40
2016-10-31T12:16:56.409Z,40
2016-10-31T12:17:56.449Z,40
2016-10-31T12:18:56.155Z,40
2016-10-31T12:19:56.487Z,40
2016-10-31T12:20:56.550Z,40
2016-10-31T12:21:56.872Z,35
2016-10-31T12:22:56.865Z,40
2016-10-31T12:23:56.592Z,40
2016-10-31T12:24:56.610Z,40
2016-10-31T12:25:56.952Z,35
2016-10-31T12:26:56.985Z,35
2016-10-31T12:27:56.999Z,35
2016-10-31T12:28:56.710Z,35
2016-10-31T12:29:56.152Z,35
2016-10-31T12:30:56.439Z,35
2016-10-31T12:31:56.473Z,35
2016-10-31T12:32:56.806Z,35
2016-10-31T12:33:56.507Z,35
2016-10-31T12:34:56.885Z,35
2016-10-31T12:35:56.590Z,35
2016-10-31T12:36:56.905Z,35
2016-10-31T12:37:56.615Z,35
2016-10-31T12:38:56.949Z,35
2016-10-31T12:39:56.345Z,35
2016-10-31T12:40:57.322Z,35
2016-10-31T12:41:56.396Z,35
2016-10-31T12:42:56.736Z,35
2016-10-31T12:43:57.156Z,35
2016-10-31T12:44:56.473Z,35
2016-10-31T12:45:57.140Z,35
2016-10-31T12:46:57.480Z,35
2016-10-31T12:47:57.521Z,35
2016-10-31T12:48:57.547Z,35
2016-10-31T12:49:57.258Z,35
2016-10-31T12:50:57.283Z,35
2016-10-31T12:51:57.284Z,35
2016-10-31T12:52:56.986Z,35
2016-10-31T12:53:58.002Z,35
2016-10-31T12:54:57.352Z,35
2016-10-31T12:55:57.376Z,35
2016-10-31T12:56:57.095Z,35
2016-10-31T12:57:57.765Z,35
2016-10-31T12:58:57.140Z,35
2016-10-31T13:00:12.692Z,35
2016-10-31T13:00:57.512Z,35
2016-10-31T13:01:57.539Z,35
2016-10-31T13:02:57.480Z,35
2016-10-31T13:03:57.921Z,35
2016-10-31T13:04:56.982Z,35
2016-10-31T13:05:57.657Z,35
2016-10-31T13:06:57.048Z,35
2016-10-31T13:07:57.697Z,35
2016-10-31T13:08:57.703Z,30
2016-10-31T13:09:58.078Z,30
2016-10-31T13:10:58.061Z,30
2016-10-31T13:11:58.088Z,30
2016-10-31T13:12:57.191Z,30
2016-10-31T13:13:58.139Z,30
2016-10-31T13:14:57.530Z,30
2016-10-31T13:15:57.556Z,30
2016-10-31T13:16:57.896Z,30
2016-10-31T13:17:58.242Z,30
2016-10-31T13:18:58.024Z,30
2016-10-31T13:19:57.409Z,30
2016-10-31T13:20:58.002Z,30
2016-10-31T13:21:58.057Z,30
2016-10-31T13:22:58.090Z,30
2016-10-31T13:23:58.066Z,30
2016-10-31T13:24:57.778Z,30
2016-10-31T13:25:58.440Z,30
2016-10-31T13:26:58.149Z,30
2016-10-31T13:27:57.854Z,30
2016-10-31T13:28:58.202Z,25
2016-10-31T13:29:58.229Z,25
2016-10-31T13:30:58.887Z,25
2016-10-31T13:31:57.652Z,25
2016-10-31T13:32:58.290Z,25
2016-10-31T13:33:58.335Z,25
2016-10-31T13:34:57.709Z,25
2016-10-31T13:35:58.373Z,25
2016-10-31T13:36:58.078Z,25
2016-10-31T13:37:58.432Z,25
2016-10-31T13:38:58.786Z,25
2016-10-31T13:39:58.469Z,25
2016-10-31T13:40:58.170Z,25
2016-10-31T13:41:58.862Z,25
2016-10-31T13:42:58.558Z,25
2016-10-31T13:43:58.248Z,25
2016-10-31T13:44:58.961Z,25
2016-10-31T13:45:59.038Z,25
2016-10-31T13:46:58.634Z,25
2016-10-31T13:47:58.033Z,20
2016-10-31T13:48:58.368Z,20
2016-10-31T13:49:58.424Z,20
2016-10-31T13:50:58.415Z,20
2016-10-31T13:51:59.083Z,20
2016-10-31T13:52:58.471Z,20
2016-10-31T13:53:58.538Z,20
2016-10-31T13:54:58.529Z,20
2016-10-31T13:55:58.541Z,20
2016-10-31T13:56:58.922Z,20
2016-10-31T13:57:58.908Z,20
2016-10-31T13:58:58.625Z,20
2016-10-31T13:59:58.643Z,20
2016-10-31T14:00:59.293Z,20
2016-10-31T14:01:59.326Z,20
2016-10-31T14:02:58.734Z,20
2016-10-31T14:03:59.389Z,20
2016-10-31T14:04:58.768Z,20
2016-10-31T14:05:59.752Z,20
2016-10-31T14:06:59.440Z,20
2016-10-31T14:07:59.467Z,20
2016-10-31T14:08:58.859Z,20
2016-10-31T14:09:59.198Z,20
2016-10-31T14:10:58.900Z,15
2016-10-31T14:11:58.931Z,15
2016-10-31T14:12:59.394Z,15
2016-10-31T14:13:59.623Z,15
2016-10-31T14:14:59.328Z,15
2016-10-31T14:15:59.050Z,15
2016-10-31T14:16:59.369Z,15
2016-10-31T14:17:59.397Z,15
2016-10-31T14:18:59.114Z,15
2016-10-31T14:19:58.816Z,15
2016-10-31T14:21:00.132Z,15
2016-10-31T14:21:58.866Z,15
2016-10-31T14:22:59.531Z,15
2016-10-31T14:23:59.544Z,15
2016-10-31T14:24:59.579Z,15
2016-10-31T14:25:59.273Z,15
2016-10-31T14:26:59.947Z,15
2016-10-31T14:27:59.636Z,15